createdAt,value
2023-04-20T00:00:31.023Z,102207.22
2023-04-20T00:02:58.839Z,102200.41
2023-04-20T00:05:27.600Z,102185.44
2023-04-20T00:07:56.314Z,102193.91
2023-04-20T00:10:22.936Z,102185.81
2023-04-20T00:12:49.604Z,102192.03
2023-04-20T00:15:16.156Z,102187.34
2023-04-20T00:17:43.626Z,102179.25
2023-04-20T00:20:10.977Z,102177.91
2023-04-20T00:22:38.614Z,102167.88
2023-04-20T00:25:05.748Z,102179.59
2023-04-20T00:27:33.358Z,102172.50
2023-04-20T00:30:00.985Z,102184.97
2023-04-20T00:32:28.515Z,102174.66
2023-04-20T00:34:55.311Z,102179.03
2023-04-20T00:37:21.892Z,102166.41
2023-04-20T00:39:48.516Z,102170.78
2023-04-20T00:42:15.125Z,102170.34
2023-04-20T00:44:42.230Z,102176.44
2023-04-20T00:47:08.842Z,102173.41
2023-04-20T00:49:35.677Z,102173.59
2023-04-20T00:52:02.332Z,102171.72
2023-04-20T00:54:30.533Z,102170.28
2023-04-20T00:56:58.214Z,102178.03
2023-04-20T00:59:25.090Z,102172.34
2023-04-20T01:01:51.900Z,102162.88
2023-04-20T01:04:19.126Z,102162.47
2023-04-20T01:06:46.142Z,102171.91
2023-04-20T01:09:16.146Z,102157.19
2023-04-20T01:11:46.126Z,102162.56
2023-04-20T01:14:13.443Z,102161.72
2023-04-20T01:16:40.081Z,102160.34
2023-04-20T01:19:06.801Z,102168.56
2023-04-20T01:21:33.591Z,102150.16
2023-04-20T01:24:00.330Z,102144.56
2023-04-20T01:26:28.064Z,102143.44
2023-04-20T01:28:56.173Z,102142.06
2023-04-20T01:31:22.930Z,102152.00
2023-04-20T01:33:50.140Z,102145.50
2023-04-20T01:36:16.819Z,102123.50
2023-04-20T01:38:46.258Z,102135.94
2023-04-20T01:41:16.863Z,102131.56
2023-04-20T01:43:43.984Z,102130.47
2023-04-20T01:46:10.676Z,102130.63
2023-04-20T01:48:37.514Z,102128.78
2023-04-20T01:51:04.391Z,102134.88
2023-04-20T01:53:31.152Z,102126.94
2023-04-20T01:55:59.662Z,102126.78
2023-04-20T01:58:26.390Z,102125.25
2023-04-20T02:00:53.057Z,102128.06
2023-04-20T02:03:19.843Z,102119.72
2023-04-20T02:05:46.592Z,102126.34
2023-04-20T02:08:16.288Z,102122.34
2023-04-20T02:10:46.101Z,102104.25
2023-04-20T02:13:15.472Z,102113.72
2023-04-20T02:15:43.810Z,102110.44
2023-04-20T02:18:10.773Z,102103.03
2023-04-20T02:20:37.478Z,102110.81
2023-04-20T02:23:04.120Z,102100.75
2023-04-20T02:25:31.023Z,102109.22
2023-04-20T02:27:57.944Z,102105.50
2023-04-20T02:30:24.848Z,102110.59
2023-04-20T02:32:51.489Z,102115.38
2023-04-20T02:35:18.589Z,102107.81
2023-04-20T02:37:46.621Z,102100.28
2023-04-20T02:40:16.082Z,102093.06
2023-04-20T02:42:45.825Z,102107.47
2023-04-20T02:45:14.064Z,102091.59
2023-04-20T02:47:41.604Z,102106.47
2023-04-20T02:50:09.594Z,102095.69
2023-04-20T02:52:36.255Z,102103.75
2023-04-20T02:55:03.143Z,102109.84
2023-04-20T02:57:29.898Z,102101.47
2023-04-20T02:59:56.786Z,102107.53
2023-04-20T03:02:23.773Z,102095.34
2023-04-20T03:04:50.576Z,102097.91
2023-04-20T03:07:18.436Z,102088.28
2023-04-20T03:09:45.094Z,102080.31
2023-04-20T03:12:12.825Z,102085.75
2023-04-20T03:14:39.367Z,102089.28
2023-04-20T03:17:06.686Z,102101.06
2023-04-20T03:19:33.336Z,102093.59
2023-04-20T03:22:00.570Z,102097.81
2023-04-20T03:24:27.313Z,102092.44
2023-04-20T03:26:53.938Z,102098.22
2023-04-20T03:29:20.796Z,102092.16
2023-04-20T03:31:47.351Z,102089.28
2023-04-20T03:34:14.197Z,102084.75
2023-04-20T03:36:41.098Z,102077.66
2023-04-20T03:39:08.139Z,102083.59
2023-04-20T03:41:34.790Z,102081.03
2023-04-20T03:44:01.387Z,102086.59
2023-04-20T03:46:28.456Z,102086.88
2023-04-20T03:48:55.238Z,102092.28
2023-04-20T03:51:21.836Z,102085.38
2023-04-20T03:53:48.433Z,102088.22
2023-04-20T03:56:18.253Z,102088.06
2023-04-20T03:58:45.129Z,102085.69
2023-04-20T04:01:14.465Z,102086.53
2023-04-20T04:03:41.413Z,102082.84
2023-04-20T04:06:09.496Z,102088.06
2023-04-20T04:08:36.517Z,102075.88
2023-04-20T04:11:04.648Z,102079.13
2023-04-20T04:13:33.780Z,102089.44
2023-04-20T04:16:01.158Z,102080.19
2023-04-20T04:18:32.309Z,102084.91
2023-04-20T04:20:59.232Z,102087.44
2023-04-20T04:23:26.355Z,102085.59
2023-04-20T04:25:52.990Z,102096.53
2023-04-20T04:28:19.736Z,102103.31
2023-04-20T04:30:49.288Z,102089.97
2023-04-20T04:33:19.016Z,102094.22
2023-04-20T04:35:46.253Z,102079.69
2023-04-20T04:38:16.329Z,102088.66
2023-04-20T04:40:46.048Z,102087.66
2023-04-20T04:43:15.446Z,102087.38
2023-04-20T04:45:44.415Z,102090.75
2023-04-20T04:48:14.909Z,102080.28
2023-04-20T04:50:41.667Z,102083.88
2023-04-20T04:53:08.469Z,102083.03
2023-04-20T04:55:35.060Z,102081.03
2023-04-20T04:58:02.436Z,102083.59
2023-04-20T05:00:29.517Z,102078.03
2023-04-20T05:02:56.352Z,102087.16
2023-04-20T05:05:23.186Z,102087.16
2023-04-20T05:07:49.789Z,102082.78
2023-04-20T05:10:16.659Z,102091.94
2023-04-20T05:12:47.447Z,102096.69
2023-04-20T05:15:14.464Z,102094.53
2023-04-20T05:17:41.122Z,102103.47
2023-04-20T05:20:10.820Z,102100.34
2023-04-20T05:22:38.007Z,102089.16
2023-04-20T05:25:11.586Z,102105.88
2023-04-20T05:27:39.751Z,102104.47
2023-04-20T05:30:19.665Z,102107.19
2023-04-20T05:32:51.557Z,102110.88
2023-04-20T05:35:19.050Z,102114.56
2023-04-20T05:37:47.717Z,102116.94
2023-04-20T05:40:15.999Z,102118.38
2023-04-20T05:42:43.610Z,102109.66
2023-04-20T05:45:11.272Z,102124.03
2023-04-20T05:47:39.084Z,102110.53
2023-04-20T05:50:06.515Z,102121.16
2023-04-20T05:52:33.507Z,102115.84
2023-04-20T05:55:00.700Z,102119.59
2023-04-20T05:57:27.363Z,102120.25
2023-04-20T05:59:56.055Z,102123.50
2023-04-20T06:02:23.078Z,102124.03
2023-04-20T06:04:50.250Z,102129.09
2023-04-20T06:07:16.992Z,102131.50
2023-04-20T06:09:46.878Z,102134.84
2023-04-20T06:12:16.500Z,102129.28
2023-04-20T06:14:44.884Z,102131.22
2023-04-20T06:17:11.560Z,102116.72
2023-04-20T06:19:38.207Z,102106.94
2023-04-20T06:22:08.456Z,102118.41
2023-04-20T06:24:35.635Z,102128.88
2023-04-20T06:27:02.768Z,102120.81
2023-04-20T06:29:29.545Z,102119.84
2023-04-20T06:31:57.312Z,102126.09
2023-04-20T06:34:24.040Z,102120.03
2023-04-20T06:36:50.847Z,102122.56
2023-04-20T06:39:17.768Z,102112.09
2023-04-20T06:41:44.998Z,102118.50
2023-04-20T06:44:12.990Z,102090.44
2023-04-20T06:46:46.961Z,102092.44
2023-04-20T06:49:16.773Z,102114.44
2023-04-20T06:52:02.308Z,102115.44
2023-04-20T06:54:39.673Z,102126.41
2023-04-20T06:57:07.446Z,102095.28
2023-04-20T06:59:34.457Z,102119.63
2023-04-20T07:02:01.612Z,102125.38
2023-04-20T07:04:28.467Z,102128.91
2023-04-20T07:06:56.629Z,102131.78
2023-04-20T07:09:27.042Z,102126.97
2023-04-20T07:11:53.785Z,102139.16
2023-04-20T07:14:20.483Z,102139.03
2023-04-20T07:16:56.300Z,102151.34
2023-04-20T07:19:23.488Z,102150.81
2023-04-20T07:21:51.340Z,102147.25
2023-04-20T07:24:18.079Z,102132.25
2023-04-20T07:26:47.918Z,102139.53
2023-04-20T07:29:17.575Z,102141.06
2023-04-20T07:31:45.060Z,102149.53
2023-04-20T07:34:14.843Z,102153.22
2023-04-20T07:36:41.598Z,102157.63
2023-04-20T07:39:14.895Z,102164.03
2023-04-20T07:41:41.548Z,102168.09
2023-04-20T07:44:10.219Z,102167.81
2023-04-20T07:46:40.138Z,102148.59
2023-04-20T07:49:17.500Z,102147.97
2023-04-20T07:51:45.510Z,102149.53
2023-04-20T07:54:14.296Z,102158.16
2023-04-20T07:56:40.939Z,102172.56
2023-04-20T07:59:10.363Z,102159.25
2023-04-20T08:01:37.380Z,102171.06
2023-04-20T08:04:04.455Z,102168.34
2023-04-20T08:06:31.959Z,102157.63
2023-04-20T08:09:03.056Z,102159.06
2023-04-20T08:11:29.716Z,102170.94
2023-04-20T08:13:58.268Z,102172.34
2023-04-20T08:16:25.696Z,102166.97
2023-04-20T08:18:52.695Z,102171.94
2023-04-20T08:21:25.547Z,102176.81
2023-04-20T08:23:52.950Z,102179.41
2023-04-20T08:26:20.571Z,102178.28
2023-04-20T08:28:47.149Z,102184.53
2023-04-20T08:31:14.801Z,102176.75
2023-04-20T08:33:42.740Z,102194.19
2023-04-20T08:36:09.639Z,102184.44
2023-04-20T08:38:37.821Z,102187.75
2023-04-20T08:41:04.653Z,102175.69
2023-04-20T08:43:33.442Z,102179.78
2023-04-20T08:46:02.879Z,102172.50
2023-04-20T08:48:39.763Z,102191.59
2023-04-20T08:51:06.620Z,102180.75
2023-04-20T08:53:35.652Z,102187.38
2023-04-20T08:56:02.250Z,102180.25
2023-04-20T08:58:33.935Z,102184.53
2023-04-20T09:01:01.363Z,102179.59
2023-04-20T09:03:49.854Z,102182.78
2023-04-20T09:06:18.248Z,102176.56
2023-04-20T09:08:46.706Z,102186.59
2023-04-20T09:11:24.483Z,102182.44
2023-04-20T09:14:02.906Z,102172.88
2023-04-20T09:16:29.745Z,102171.44
2023-04-20T09:18:57.520Z,102171.88
2023-04-20T09:21:28.162Z,102179.88
2023-04-20T09:24:03.889Z,102184.47
2023-04-20T09:26:34.927Z,102173.56
2023-04-20T09:29:02.897Z,102179.66
2023-04-20T09:31:29.606Z,102181.13
2023-04-20T09:34:00.839Z,102165.38
2023-04-20T09:36:50.276Z,102156.31
2023-04-20T09:39:18.751Z,102156.63
2023-04-20T09:41:50.217Z,102160.09
2023-04-20T09:44:18.439Z,102158.41
2023-04-20T09:46:46.803Z,102170.84
2023-04-20T09:49:16.247Z,102162.63
2023-04-20T09:51:48.822Z,102159.50
2023-04-20T09:54:16.560Z,102159.13
2023-04-20T09:56:45.894Z,102168.41
2023-04-20T09:59:14.452Z,102174.22
2023-04-20T10:01:41.253Z,102164.06
2023-04-20T10:04:11.159Z,102172.94
2023-04-20T10:06:38.663Z,102159.78
2023-04-20T10:09:07.812Z,102172.91
2023-04-20T10:11:45.214Z,102171.47
2023-04-20T10:14:26.211Z,102164.13
2023-04-20T10:17:03.422Z,102166.78
2023-04-20T10:19:40.361Z,102155.78
2023-04-20T10:22:08.383Z,102160.22
2023-04-20T10:24:38.337Z,102159.63
2023-04-20T10:27:19.419Z,102152.72
2023-04-20T10:29:46.594Z,102148.72
2023-04-20T10:32:27.729Z,102162.44
2023-04-20T10:35:06.641Z,102153.72
2023-04-20T10:37:33.922Z,102155.41
2023-04-20T10:40:01.178Z,102152.72
2023-04-20T10:42:29.749Z,102155.69
2023-04-20T10:44:56.477Z,102157.59
2023-04-20T10:47:31.673Z,102158.84
2023-04-20T10:50:08.437Z,102160.53
2023-04-20T10:52:36.778Z,102160.13
2023-04-20T10:55:05.149Z,102148.56
2023-04-20T10:57:31.867Z,102145.56
2023-04-20T10:59:58.536Z,102152.53
2023-04-20T11:02:25.866Z,102148.34
2023-04-20T11:04:53.426Z,102160.53
2023-04-20T11:07:20.975Z,102159.28
2023-04-20T11:09:55.801Z,102160.97
2023-04-20T11:12:22.485Z,102164.31
2023-04-20T11:14:58.081Z,102161.75
2023-04-20T11:17:34.882Z,102165.94
2023-04-20T11:20:15.502Z,102149.53
2023-04-20T11:22:57.857Z,102158.72
2023-04-20T11:25:24.534Z,102162.75
2023-04-20T11:27:51.358Z,102157.81
2023-04-20T11:30:18.011Z,102164.31
2023-04-20T11:32:54.439Z,102167.78
2023-04-20T11:35:21.545Z,102157.09
2023-04-20T11:37:51.450Z,102160.28
2023-04-20T11:40:18.452Z,102153.09
2023-04-20T11:42:46.314Z,102150.53
2023-04-20T11:45:14.517Z,102147.97
2023-04-20T11:47:41.425Z,102151.72
2023-04-20T11:50:10.317Z,102141.94
2023-04-20T11:52:38.334Z,102138.81
2023-04-20T11:55:06.115Z,102146.22
2023-04-20T11:57:33.444Z,102134.84
2023-04-20T12:00:01.063Z,102144.44
2023-04-20T12:02:27.818Z,102138.16
2023-04-20T12:04:54.641Z,102131.03
2023-04-20T12:07:22.352Z,102141.13
2023-04-20T12:09:49.522Z,102139.47
2023-04-20T12:12:16.222Z,102134.66
2023-04-20T12:14:43.025Z,102122.31
2023-04-20T12:17:09.797Z,102123.16
2023-04-20T12:19:36.623Z,102125.03
2023-04-20T12:22:03.535Z,102127.34
2023-04-20T12:24:30.188Z,102118.50
2023-04-20T12:26:58.161Z,102121.41
2023-04-20T12:29:24.916Z,102122.00
2023-04-20T12:31:51.628Z,102115.09
2023-04-20T12:34:18.530Z,102115.09
2023-04-20T12:36:45.545Z,102112.53
2023-04-20T12:39:14.538Z,102120.44
2023-04-20T12:41:41.528Z,102110.44
2023-04-20T12:44:10.009Z,102117.81
2023-04-20T12:46:37.912Z,102112.47
2023-04-20T12:49:04.637Z,102110.81
2023-04-20T12:51:32.190Z,102102.84
2023-04-20T12:53:58.833Z,102109.50
2023-04-20T12:56:25.810Z,102105.56
2023-04-20T12:58:52.891Z,102102.06
2023-04-20T13:01:19.615Z,102093.75
2023-04-20T13:03:52.873Z,102094.59
2023-04-20T13:06:19.751Z,102087.03
2023-04-20T13:08:46.998Z,102087.94
2023-04-20T13:11:17.998Z,102087.44
2023-04-20T13:13:47.553Z,102079.94
2023-04-20T13:16:14.649Z,102066.38
2023-04-20T13:18:41.427Z,102066.03
2023-04-20T13:21:08.458Z,102073.19
2023-04-20T13:23:35.072Z,102070.13
2023-04-20T13:26:02.060Z,102066.28
2023-04-20T13:28:29.860Z,102063.22
2023-04-20T13:30:57.671Z,102072.13
2023-04-20T13:33:24.452Z,102065.94
2023-04-20T13:35:51.504Z,102065.81
2023-04-20T13:38:18.486Z,102069.75
2023-04-20T13:40:46.374Z,102050.03
2023-04-20T13:43:15.761Z,102062.00
2023-04-20T13:45:42.748Z,102051.53
2023-04-20T13:48:09.519Z,102053.91
2023-04-20T13:50:36.568Z,102054.13
2023-04-20T13:53:03.361Z,102037.94
2023-04-20T13:55:30.920Z,102037.03
2023-04-20T13:57:57.607Z,102031.59
2023-04-20T14:00:26.130Z,102028.09
2023-04-20T14:02:53.150Z,102029.31
2023-04-20T14:05:19.914Z,102027.34
2023-04-20T14:07:46.573Z,102025.72
2023-04-20T14:10:16.534Z,102021.75
2023-04-20T14:12:46.811Z,102016.84
2023-04-20T14:15:16.623Z,102014.13
2023-04-20T14:17:47.139Z,102013.03
2023-04-20T14:20:14.855Z,102018.28
2023-04-20T14:22:43.934Z,102016.38
2023-04-20T14:25:11.054Z,102014.91
2023-04-20T14:27:37.857Z,102011.56
2023-04-20T14:30:04.973Z,102016.38
2023-04-20T14:32:31.726Z,102018.53
2023-04-20T14:34:58.989Z,102016.66
2023-04-20T14:37:27.489Z,102022.97
2023-04-20T14:39:54.343Z,102016.38
2023-04-20T14:42:21.865Z,102005.94
2023-04-20T14:44:49.526Z,102000.63
2023-04-20T14:47:16.603Z,102005.28
2023-04-20T14:49:50.701Z,102006.28
2023-04-20T14:52:19.101Z,102009.22
2023-04-20T14:54:45.998Z,102007.25
2023-04-20T14:57:18.885Z,102011.00
2023-04-20T14:59:50.038Z,102010.88
2023-04-20T15:02:18.612Z,102004.88
2023-04-20T15:04:46.393Z,102005.72
2023-04-20T15:07:15.384Z,101999.84
2023-04-20T15:09:46.561Z,102007.09
2023-04-20T15:12:21.783Z,102002.28
2023-04-20T15:14:49.639Z,102003.00
2023-04-20T15:17:16.432Z,101999.84
2023-04-20T15:19:46.209Z,102000.91
2023-04-20T15:22:15.402Z,102006.50
2023-04-20T15:24:42.737Z,102007.31
2023-04-20T15:27:10.409Z,102015.09
2023-04-20T15:29:37.417Z,102006.94
2023-04-20T15:32:05.177Z,102014.56
2023-04-20T15:34:31.918Z,102019.97
2023-04-20T15:36:58.600Z,102010.91
2023-04-20T15:39:26.505Z,102014.88
2023-04-20T15:41:53.175Z,102010.59
2023-04-20T15:44:20.031Z,102013.97
2023-04-20T15:46:48.024Z,102016.75
2023-04-20T15:49:23.108Z,102018.38
2023-04-20T15:51:49.837Z,102010.81
2023-04-20T15:54:16.721Z,102015.75
2023-04-20T15:56:44.301Z,102016.06
2023-04-20T15:59:10.900Z,102001.91
2023-04-20T16:01:37.845Z,102022.28
2023-04-20T16:04:04.839Z,102013.06
2023-04-20T16:06:31.759Z,102011.00
2023-04-20T16:08:58.644Z,102017.91
2023-04-20T16:11:25.419Z,102022.88
2023-04-20T16:13:52.006Z,102023.09
2023-04-20T16:16:18.960Z,102033.63
2023-04-20T16:18:45.783Z,102008.13
2023-04-20T16:21:14.688Z,102022.56
2023-04-20T16:23:41.272Z,102030.69
2023-04-20T16:26:07.914Z,102018.63
2023-04-20T16:28:34.645Z,101989.53
2023-04-20T16:31:01.447Z,102021.41
2023-04-20T16:33:29.755Z,102024.84
2023-04-20T16:35:58.303Z,102019.03
2023-04-20T16:38:26.083Z,102021.78
2023-04-20T16:40:54.858Z,102025.22
2023-04-20T16:43:23.753Z,102021.84
2023-04-20T16:45:53.269Z,102025.50
2023-04-20T16:48:20.006Z,102024.06
2023-04-20T16:50:46.826Z,102008.75
2023-04-20T16:53:17.621Z,102019.88
2023-04-20T16:55:47.986Z,102017.19
2023-04-20T16:58:14.767Z,102031.09
2023-04-20T17:00:42.103Z,102025.66
2023-04-20T17:03:11.174Z,102017.69
2023-04-20T17:05:42.051Z,102019.81
2023-04-20T17:08:09.797Z,102027.19
2023-04-20T17:10:38.577Z,102028.66
2023-04-20T17:13:05.550Z,102028.88
2023-04-20T17:15:32.335Z,102028.66
2023-04-20T17:18:00.441Z,102029.91
2023-04-20T17:20:27.054Z,102033.28
2023-04-20T17:22:55.929Z,102032.81
2023-04-20T17:25:27.211Z,102030.69
2023-04-20T17:27:53.904Z,102036.97
2023-04-20T17:30:23.277Z,102035.28
2023-04-20T17:32:49.914Z,102040.91
2023-04-20T17:35:16.528Z,102006.25
2023-04-20T17:37:47.070Z,102032.22
2023-04-20T17:40:16.458Z,102020.44
2023-04-20T17:42:45.320Z,102028.13
2023-04-20T17:45:16.014Z,102024.28
2023-04-20T17:47:44.490Z,102030.72
2023-04-20T17:50:16.630Z,102028.94
2023-04-20T17:52:46.305Z,102039.44
2023-04-20T17:55:16.372Z,102039.34
2023-04-20T17:57:45.699Z,102031.78
2023-04-20T18:00:14.802Z,102039.69
2023-04-20T18:02:42.309Z,102042.09
2023-04-20T18:05:09.471Z,102036.66
2023-04-20T18:07:36.377Z,102043.63
2023-04-20T18:10:04.170Z,102043.66
2023-04-20T18:12:30.948Z,102048.75
2023-04-20T18:14:57.553Z,102053.00
2023-04-20T18:17:24.251Z,102051.19
2023-04-20T18:19:51.407Z,102057.09
2023-04-20T18:22:18.188Z,102062.31
2023-04-20T18:24:45.976Z,102051.47
2023-04-20T18:27:15.253Z,102062.38
2023-04-20T18:29:42.592Z,102055.72
2023-04-20T18:32:09.370Z,102073.34
2023-04-20T18:34:36.873Z,102056.72
2023-04-20T18:37:04.600Z,102077.75
2023-04-20T18:39:31.314Z,102078.00
2023-04-20T18:41:58.174Z,102078.94
2023-04-20T18:44:25.961Z,102077.59
2023-04-20T18:46:54.136Z,102067.84
2023-04-20T18:49:20.958Z,102078.19
2023-04-20T18:51:47.782Z,102078.38
2023-04-20T18:54:14.515Z,102072.53
2023-04-20T18:56:41.266Z,102077.31
2023-04-20T18:59:09.150Z,102077.00
2023-04-20T19:01:40.469Z,102075.53
2023-04-20T19:04:11.055Z,102068.97
2023-04-20T19:06:37.913Z,102071.38
2023-04-20T19:09:07.293Z,102068.53
2023-04-20T19:11:37.880Z,102061.63
2023-04-20T19:14:04.453Z,102078.06
2023-04-20T19:16:32.302Z,102073.19
2023-04-20T19:18:59.420Z,102072.19
2023-04-20T19:21:27.015Z,102071.38
2023-04-20T19:23:53.825Z,102068.47
2023-04-20T19:26:21.650Z,102079.31
2023-04-20T19:28:48.346Z,102078.66
2023-04-20T19:31:16.281Z,102079.53
2023-04-20T19:33:46.169Z,102080.06
2023-04-20T19:36:15.881Z,102073.31
2023-04-20T19:38:46.495Z,102088.69
2023-04-20T19:41:16.112Z,102086.50
2023-04-20T19:43:46.905Z,102081.81
2023-04-20T19:46:17.090Z,102086.56
2023-04-20T19:48:47.696Z,102094.19
2023-04-20T19:51:17.332Z,102094.03
2023-04-20T19:53:47.018Z,102094.34
2023-04-20T19:56:15.437Z,102100.41
2023-04-20T19:58:45.073Z,102102.97
2023-04-20T20:01:14.225Z,102103.47
2023-04-20T20:03:43.383Z,102090.13
2023-04-20T20:06:10.412Z,102099.78
2023-04-20T20:08:37.679Z,102089.47
2023-04-20T20:11:04.597Z,102102.78
2023-04-20T20:13:31.412Z,102106.34
2023-04-20T20:15:59.059Z,102100.59
2023-04-20T20:18:26.583Z,102105.47
2023-04-20T20:20:54.302Z,102094.66
2023-04-20T20:23:24.049Z,102104.28
2023-04-20T20:25:50.643Z,102111.22
2023-04-20T20:28:17.318Z,102097.38
2023-04-20T20:30:46.801Z,102111.53
2023-04-20T20:33:16.540Z,102105.47
2023-04-20T20:35:45.952Z,102112.38
2023-04-20T20:38:12.748Z,102109.47
2023-04-20T20:40:44.847Z,102116.53
2023-04-20T20:43:16.317Z,102115.50
2023-04-20T20:45:47.417Z,102120.53
2023-04-20T20:48:17.118Z,102114.94
2023-04-20T20:50:46.925Z,102118.84
2023-04-20T20:53:20.373Z,102109.66
2023-04-20T20:55:47.023Z,102110.84
2023-04-20T20:58:17.007Z,102111.03
2023-04-20T21:00:47.217Z,102113.34
2023-04-20T21:03:17.130Z,102114.38
2023-04-20T21:05:47.212Z,102113.34
2023-04-20T21:08:17.373Z,102120.06
2023-04-20T21:10:44.161Z,102125.94
2023-04-20T21:13:10.946Z,102119.00
2023-04-20T21:15:37.621Z,102124.53
2023-04-20T21:18:04.570Z,102125.00
2023-04-20T21:20:31.259Z,102119.28
2023-04-20T21:22:57.930Z,102120.91
2023-04-20T21:25:25.540Z,102115.38
2023-04-20T21:27:52.253Z,102118.16
2023-04-20T21:30:18.891Z,102125.25
2023-04-20T21:32:45.532Z,102119.84
2023-04-20T21:35:14.569Z,102128.28
2023-04-20T21:37:45.162Z,102136.66
2023-04-20T21:40:12.833Z,102130.22
2023-04-20T21:42:39.568Z,102138.59
2023-04-20T21:45:06.838Z,102135.53
2023-04-20T21:47:33.415Z,102126.69
2023-04-20T21:50:00.099Z,102125.28
2023-04-20T21:52:27.087Z,102129.44
2023-04-20T21:54:53.797Z,102130.75
2023-04-20T21:57:20.430Z,102119.47
2023-04-20T21:59:47.019Z,102126.16
2023-04-20T22:02:16.727Z,102128.28
2023-04-20T22:04:46.561Z,102134.31
2023-04-20T22:07:17.646Z,102135.25
2023-04-20T22:09:47.492Z,102137.22
2023-04-20T22:12:32.292Z,102126.09
2023-04-20T22:15:03.106Z,102129.69
2023-04-20T22:17:31.187Z,102132.53
2023-04-20T22:19:57.752Z,102128.84
2023-04-20T22:22:24.461Z,102127.69
2023-04-20T22:24:52.178Z,102140.84
2023-04-20T22:27:18.828Z,102133.06
2023-04-20T22:29:45.566Z,102123.97
2023-04-20T22:32:17.034Z,102130.13
2023-04-20T22:34:46.834Z,102129.00
2023-04-20T22:37:16.801Z,102128.44
2023-04-20T22:39:45.623Z,102124.69
2023-04-20T22:42:14.927Z,102131.44
2023-04-20T22:44:41.769Z,102133.22
2023-04-20T22:47:08.763Z,102127.66
2023-04-20T22:49:35.953Z,102132.75
2023-04-20T22:52:02.784Z,102132.44
2023-04-20T22:54:30.277Z,102126.00
2023-04-20T22:56:57.278Z,102136.25
2023-04-20T22:59:24.056Z,102127.44
2023-04-20T23:01:50.791Z,102132.75
2023-04-20T23:04:17.632Z,102129.66
2023-04-20T23:06:45.461Z,102126.13
2023-04-20T23:09:14.039Z,102136.06
2023-04-20T23:11:41.142Z,102128.75
2023-04-20T23:14:08.865Z,102129.28
2023-04-20T23:16:35.767Z,102126.44
2023-04-20T23:19:02.581Z,102126.94
2023-04-20T23:21:29.328Z,102127.06
2023-04-20T23:23:57.754Z,102125.56
2023-04-20T23:26:25.111Z,102136.81
2023-04-20T23:28:52.778Z,102129.75
2023-04-20T23:31:20.261Z,102125.97
2023-04-20T23:33:47.864Z,102128.22
2023-04-20T23:36:15.380Z,102120.13
2023-04-20T23:38:44.993Z,102125.97
2023-04-20T23:41:16.476Z,102116.41
2023-04-20T23:43:46.325Z,102117.09
2023-04-20T23:46:15.803Z,102109.09
2023-04-20T23:48:44.990Z,102115.34
2023-04-20T23:51:11.864Z,102114.72
2023-04-20T23:53:39.689Z,102129.56
2023-04-20T23:56:06.788Z,102115.75
2023-04-20T23:58:33.404Z,102118.47
